createdAt,value
2022-10-11T00:01:41.454Z,5.94
2022-10-11T00:04:08.040Z,5.92
2022-10-11T00:06:34.656Z,5.89
2022-10-11T00:09:01.248Z,5.82
2022-10-11T00:11:27.835Z,5.76
2022-10-11T00:13:54.294Z,5.73
2022-10-11T00:16:21.023Z,5.71
2022-10-11T00:18:47.482Z,5.65
2022-10-11T00:21:15.919Z,5.62
2022-10-11T00:23:43.409Z,5.51
2022-10-11T00:26:11.855Z,5.44
2022-10-11T00:28:38.660Z,5.40
2022-10-11T00:31:11.990Z,5.32
2022-10-11T00:33:38.476Z,5.28
2022-10-11T00:36:05.897Z,5.26
2022-10-11T00:38:32.575Z,5.24
2022-10-11T00:41:00.229Z,5.22
2022-10-11T00:43:29.062Z,5.18
2022-10-11T00:45:55.445Z,5.16
2022-10-11T00:48:27.600Z,5.14
2022-10-11T00:50:58.264Z,5.12
2022-10-11T00:53:25.622Z,5.12
2022-10-11T00:56:04.782Z,5.11
2022-10-11T00:58:35.077Z,5.12
2022-10-11T01:01:01.738Z,5.11
2022-10-11T01:03:30.378Z,5.08
2022-10-11T01:05:57.121Z,5.06
2022-10-11T01:08:25.539Z,5.01
2022-10-11T01:10:52.181Z,4.95
2022-10-11T01:13:38.838Z,4.88
2022-10-11T01:16:37.701Z,4.86
2022-10-11T01:19:30.814Z,4.89
2022-10-11T01:22:22.178Z,4.90
2022-10-11T01:25:17.969Z,4.90
2022-10-11T01:28:13.275Z,4.91
2022-10-11T01:30:39.839Z,4.92
2022-10-11T01:33:40.090Z,4.92
2022-10-11T01:36:31.391Z,4.89
2022-10-11T01:39:11.659Z,4.88
2022-10-11T01:41:46.711Z,4.89
2022-10-11T01:44:13.832Z,4.91
2022-10-11T01:46:41.203Z,4.88
2022-10-11T01:49:08.529Z,4.82
2022-10-11T01:51:40.560Z,4.79
2022-10-11T01:55:03.959Z,4.77
2022-10-11T01:57:41.455Z,4.68
2022-10-11T02:00:18.057Z,4.65
2022-10-11T02:02:50.662Z,4.66
2022-10-11T02:05:36.535Z,4.68
2022-10-11T02:08:20.665Z,4.68
2022-10-11T02:11:02.317Z,4.64
2022-10-11T02:13:35.913Z,4.63
2022-10-11T02:16:07.088Z,4.61
2022-10-11T02:18:37.977Z,4.64
2022-10-11T02:21:08.742Z,4.68
2022-10-11T02:23:43.027Z,4.72
2022-10-11T02:26:12.034Z,4.71
2022-10-11T02:28:41.585Z,4.67
2022-10-11T02:31:11.276Z,4.63
2022-10-11T02:33:44.757Z,4.58
2022-10-11T02:36:17.954Z,4.56
2022-10-11T02:38:48.767Z,4.54
2022-10-11T02:41:38.942Z,4.52
2022-10-11T02:44:40.755Z,4.52
2022-10-11T02:47:08.872Z,4.51
2022-10-11T02:49:35.742Z,4.48
2022-10-11T02:52:04.822Z,4.47
2022-10-11T02:54:31.348Z,4.48
2022-10-11T02:56:57.773Z,4.44
2022-10-11T02:59:24.264Z,4.41
2022-10-11T03:01:50.783Z,4.41
2022-10-11T03:04:17.354Z,4.41
2022-10-11T03:06:43.793Z,4.41
2022-10-11T03:09:10.280Z,4.40
2022-10-11T03:11:36.780Z,4.43
2022-10-11T03:14:03.192Z,4.46
2022-10-11T03:16:30.908Z,4.49
2022-10-11T03:18:57.276Z,4.50
2022-10-11T03:21:25.169Z,4.50
2022-10-11T03:23:51.578Z,4.43
2022-10-11T03:26:18.013Z,4.38
2022-10-11T03:28:44.668Z,4.33
2022-10-11T03:31:12.256Z,4.35
2022-10-11T03:33:38.640Z,4.32
2022-10-11T03:36:05.899Z,4.30
2022-10-11T03:38:33.101Z,4.25
2022-10-11T03:40:59.597Z,4.24
2022-10-11T03:43:26.190Z,4.18
2022-10-11T03:45:52.651Z,4.17
2022-10-11T03:48:19.099Z,4.16
2022-10-11T03:50:45.532Z,4.16
2022-10-11T03:53:11.974Z,4.14
2022-10-11T03:55:40.243Z,4.13
2022-10-11T03:58:07.317Z,4.13
2022-10-11T04:00:34.669Z,4.15
2022-10-11T04:03:03.612Z,4.09
2022-10-11T04:05:30.715Z,4.03
2022-10-11T04:07:57.394Z,4.03
2022-10-11T04:10:23.903Z,4.01
2022-10-11T04:12:50.308Z,4.01
2022-10-11T04:15:16.846Z,4.00
2022-10-11T04:17:43.244Z,3.97
2022-10-11T04:20:10.065Z,3.95
2022-10-11T04:22:36.755Z,3.93
2022-10-11T04:25:03.211Z,3.92
2022-10-11T04:27:30.303Z,3.89
2022-10-11T04:29:56.733Z,3.84
2022-10-11T04:32:23.240Z,3.83
2022-10-11T04:34:49.876Z,3.82
2022-10-11T04:37:16.518Z,3.81
2022-10-11T04:39:42.852Z,3.74
2022-10-11T04:42:09.320Z,3.67
2022-10-11T04:44:35.874Z,3.68
2022-10-11T04:47:02.464Z,3.69
2022-10-11T04:49:28.909Z,3.71
2022-10-11T04:51:55.467Z,3.72
2022-10-11T04:54:21.921Z,3.77
2022-10-11T04:56:48.423Z,3.79
2022-10-11T04:59:14.995Z,3.82
2022-10-11T05:01:41.462Z,3.83
2022-10-11T05:04:07.997Z,3.85
2022-10-11T05:06:34.712Z,3.90
2022-10-11T05:09:01.129Z,3.95
2022-10-11T05:11:27.557Z,3.98
2022-10-11T05:13:54.001Z,3.98
2022-10-11T05:16:20.409Z,3.99
2022-10-11T05:18:46.831Z,3.98
2022-10-11T05:21:22.811Z,3.97
2022-10-11T05:23:51.046Z,3.93
2022-10-11T05:26:19.044Z,3.93
2022-10-11T05:28:45.810Z,3.95
2022-10-11T05:31:13.060Z,3.95
2022-10-11T05:33:39.493Z,3.95
2022-10-11T05:36:07.022Z,3.94
2022-10-11T05:38:34.007Z,3.93
2022-10-11T05:41:01.705Z,3.93
2022-10-11T05:43:29.241Z,3.93
2022-10-11T05:45:55.777Z,3.92
2022-10-11T05:48:22.337Z,3.89
2022-10-11T05:50:48.780Z,3.89
2022-10-11T05:53:15.212Z,3.86
2022-10-11T05:55:43.299Z,3.85
2022-10-11T05:58:15.128Z,3.88
2022-10-11T06:00:41.599Z,3.93
2022-10-11T06:03:10.907Z,3.88
2022-10-11T06:05:37.318Z,3.87
2022-10-11T06:08:08.709Z,3.88
2022-10-11T06:10:36.932Z,3.90
2022-10-11T06:13:03.505Z,3.92
2022-10-11T06:15:30.227Z,3.98
2022-10-11T06:17:57.952Z,4.05
2022-10-11T06:20:24.994Z,4.08
2022-10-11T06:22:51.534Z,4.11
2022-10-11T06:25:18.044Z,4.16
2022-10-11T06:27:45.153Z,4.22
2022-10-11T06:30:11.844Z,4.28
2022-10-11T06:32:38.225Z,4.29
2022-10-11T06:35:06.016Z,4.35
2022-10-11T06:37:32.422Z,4.40
2022-10-11T06:39:58.918Z,4.47
2022-10-11T06:42:25.511Z,4.54
2022-10-11T06:44:51.921Z,4.61
2022-10-11T06:47:18.356Z,4.71
2022-10-11T06:49:44.801Z,4.78
2022-10-11T06:52:11.275Z,4.83
2022-10-11T06:54:42.499Z,4.86
2022-10-11T06:57:11.084Z,4.85
2022-10-11T06:59:37.508Z,4.88
2022-10-11T07:02:03.977Z,4.91
2022-10-11T07:04:30.429Z,4.86
2022-10-11T07:06:56.896Z,4.83
2022-10-11T07:09:23.377Z,4.91
2022-10-11T07:11:49.814Z,4.97
2022-10-11T07:14:16.181Z,5.01
2022-10-11T07:16:42.666Z,5.04
2022-10-11T07:19:10.328Z,5.04
2022-10-11T07:21:36.920Z,5.09
2022-10-11T07:24:03.941Z,5.18
2022-10-11T07:26:36.807Z,5.32
2022-10-11T07:29:05.612Z,5.48
2022-10-11T07:31:32.199Z,5.61
2022-10-11T07:33:58.638Z,5.71
2022-10-11T07:36:25.381Z,5.87
2022-10-11T07:38:51.817Z,6.01
2022-10-11T07:41:18.539Z,6.07
2022-10-11T07:43:47.662Z,6.12
2022-10-11T07:46:14.164Z,6.19
2022-10-11T07:48:41.010Z,6.26
2022-10-11T07:51:11.878Z,6.33
2022-10-11T07:53:39.948Z,6.35
2022-10-11T07:56:07.844Z,6.36
2022-10-11T07:58:34.848Z,6.40
2022-10-11T08:01:01.417Z,6.44
2022-10-11T08:03:28.088Z,6.48
2022-10-11T08:05:54.740Z,6.56
2022-10-11T08:08:21.303Z,6.63
2022-10-11T08:10:48.138Z,6.75
2022-10-11T08:13:14.686Z,6.95
2022-10-11T08:15:41.287Z,7.06
2022-10-11T08:18:07.801Z,7.22
2022-10-11T08:20:34.272Z,7.37
2022-10-11T08:23:00.935Z,7.55
2022-10-11T08:25:27.485Z,7.67
2022-10-11T08:27:54.023Z,7.83
2022-10-11T08:30:20.473Z,7.99
2022-10-11T08:32:46.882Z,8.14
2022-10-11T08:35:13.321Z,8.31
2022-10-11T08:37:39.795Z,8.41
2022-10-11T08:40:06.999Z,8.57
2022-10-11T08:42:45.684Z,8.70
2022-10-11T08:45:46.507Z,8.76
2022-10-11T08:48:17.952Z,8.84
2022-10-11T08:50:47.410Z,9.00
2022-10-11T08:53:26.873Z,9.17
2022-10-11T08:55:54.759Z,9.29
2022-10-11T08:58:26.015Z,9.41
2022-10-11T09:00:55.600Z,9.53
2022-10-11T09:03:31.191Z,9.62
2022-10-11T09:06:23.125Z,9.78
2022-10-11T09:09:08.390Z,9.88
2022-10-11T09:11:42.507Z,10.02
2022-10-11T09:14:36.202Z,10.15
2022-10-11T09:17:19.546Z,10.31
2022-10-11T09:20:10.886Z,10.40
2022-10-11T09:23:35.255Z,10.57
2022-10-11T09:26:22.904Z,10.74
2022-10-11T09:29:08.298Z,10.84
2022-10-11T09:31:34.909Z,10.94
2022-10-11T09:34:11.143Z,11.01
2022-10-11T09:36:41.231Z,11.04
2022-10-11T09:39:25.107Z,11.14
2022-10-11T09:42:07.872Z,11.29
2022-10-11T09:44:37.867Z,11.40
2022-10-11T09:47:05.708Z,11.50
2022-10-11T09:49:38.268Z,11.63
2022-10-11T09:52:11.212Z,11.69
2022-10-11T09:54:46.228Z,11.72
2022-10-11T09:57:20.041Z,11.79
2022-10-11T10:00:16.051Z,11.94
2022-10-11T10:02:48.941Z,12.11
2022-10-11T10:05:26.103Z,12.38
2022-10-11T10:08:10.669Z,12.45
2022-10-11T10:10:42.911Z,12.51
2022-10-11T10:13:24.170Z,12.62
2022-10-11T10:15:53.633Z,12.77
2022-10-11T10:18:36.154Z,12.90
2022-10-11T10:21:03.908Z,13.11
2022-10-11T10:23:33.276Z,13.24
2022-10-11T10:26:14.705Z,13.32
2022-10-11T10:29:09.306Z,13.32
2022-10-11T10:31:55.352Z,13.35
2022-10-11T10:34:35.329Z,13.28
2022-10-11T10:37:28.074Z,13.26
2022-10-11T10:40:17.199Z,13.20
2022-10-11T10:42:43.678Z,13.13
2022-10-11T10:45:21.604Z,13.18
2022-10-11T10:48:09.345Z,13.25
2022-10-11T10:50:52.608Z,13.30
2022-10-11T10:53:32.057Z,13.28
2022-10-11T10:56:01.774Z,13.38
2022-10-11T10:59:02.639Z,13.50
2022-10-11T11:01:32.604Z,13.74
2022-10-11T11:04:30.269Z,13.81
2022-10-11T11:07:22.962Z,13.87
2022-10-11T11:10:13.541Z,13.98
2022-10-11T11:12:48.660Z,13.77
2022-10-11T11:15:29.940Z,13.93
2022-10-11T11:18:20.753Z,14.28
2022-10-11T11:21:17.240Z,14.48
2022-10-11T11:23:56.851Z,14.56
2022-10-11T11:26:45.829Z,14.70
2022-10-11T11:29:15.023Z,14.41
2022-10-11T11:32:19.014Z,14.13
2022-10-11T11:34:58.287Z,14.01
2022-10-11T11:37:41.360Z,13.83
2022-10-11T11:40:16.325Z,13.76
2022-10-11T11:42:50.767Z,13.78
2022-10-11T11:45:46.732Z,13.70
2022-10-11T11:48:27.525Z,13.71
2022-10-11T11:51:11.346Z,13.62
2022-10-11T11:53:52.449Z,13.57
2022-10-11T11:56:33.401Z,13.59
2022-10-11T11:59:03.002Z,13.57
2022-10-11T12:01:55.868Z,13.56
2022-10-11T12:04:28.444Z,13.56
2022-10-11T12:07:18.873Z,13.57
2022-10-11T12:10:18.459Z,13.79
2022-10-11T12:12:45.498Z,14.22
2022-10-11T12:15:23.881Z,14.49
2022-10-11T12:17:53.057Z,14.54
2022-10-11T12:20:38.007Z,14.44
2022-10-11T12:23:27.289Z,14.50
2022-10-11T12:26:27.952Z,14.60
2022-10-11T12:29:18.694Z,14.65
2022-10-11T12:31:47.575Z,14.70
2022-10-11T12:34:20.999Z,14.80
2022-10-11T12:36:50.187Z,14.87
2022-10-11T12:39:19.556Z,15.00
2022-10-11T12:41:53.636Z,15.08
2022-10-11T12:44:23.014Z,14.93
2022-10-11T12:46:55.727Z,14.54
2022-10-11T12:49:28.367Z,14.35
2022-10-11T12:52:05.343Z,14.22
2022-10-11T12:54:37.724Z,14.18
2022-10-11T12:57:46.426Z,14.11
2022-10-11T13:00:20.766Z,14.07
2022-10-11T13:02:48.726Z,14.25
2022-10-11T13:05:25.816Z,14.65
2022-10-11T13:07:55.432Z,14.88
2022-10-11T13:10:32.675Z,15.09
2022-10-11T13:13:04.214Z,15.25
2022-10-11T13:15:30.912Z,15.27
2022-10-11T13:18:01.088Z,15.35
2022-10-11T13:20:37.442Z,15.18
2022-10-11T13:23:25.062Z,15.02
2022-10-11T13:25:52.352Z,14.92
2022-10-11T13:28:20.167Z,14.82
2022-10-11T13:30:51.177Z,14.74
2022-10-11T13:33:47.150Z,14.69
2022-10-11T13:36:17.693Z,14.64
2022-10-11T13:38:55.978Z,14.58
2022-10-11T13:41:24.835Z,14.56
2022-10-11T13:43:53.299Z,14.58
2022-10-11T13:46:23.202Z,14.54
2022-10-11T13:49:04.416Z,14.52
2022-10-11T13:51:34.775Z,14.52
2022-10-11T13:54:02.680Z,14.48
2022-10-11T13:56:32.728Z,14.48
2022-10-11T13:59:00.715Z,14.51
2022-10-11T14:01:36.183Z,14.50
2022-10-11T14:04:06.233Z,14.44
2022-10-11T14:06:43.609Z,14.47
2022-10-11T14:09:23.392Z,14.51
2022-10-11T14:11:50.307Z,14.56
2022-10-11T14:14:37.639Z,14.72
2022-10-11T14:17:18.567Z,14.85
2022-10-11T14:19:46.761Z,14.99
2022-10-11T14:22:18.176Z,15.19
2022-10-11T14:24:48.038Z,15.31
2022-10-11T14:27:22.353Z,15.30
2022-10-11T14:30:19.951Z,15.40
2022-10-11T14:32:36.424Z,15.43
2022-10-11T14:35:03.842Z,15.41
2022-10-11T14:37:30.337Z,15.44
2022-10-11T14:39:56.852Z,15.53
2022-10-11T14:42:23.359Z,15.56
2022-10-11T14:44:50.010Z,15.52
2022-10-11T14:47:16.772Z,15.51
2022-10-11T14:49:49.820Z,15.51
2022-10-11T14:52:16.247Z,15.53
2022-10-11T14:54:42.743Z,15.55
2022-10-11T14:57:12.048Z,15.51
2022-10-11T14:59:38.667Z,15.49
2022-10-11T15:02:08.710Z,15.45
2022-10-11T15:04:35.457Z,15.52
2022-10-11T15:07:03.049Z,15.51
2022-10-11T15:09:31.059Z,15.43
2022-10-11T15:11:58.165Z,15.40
2022-10-11T15:14:25.186Z,15.29
2022-10-11T15:16:52.587Z,15.09
2022-10-11T15:19:22.220Z,14.93
2022-10-11T15:21:49.069Z,14.80
2022-10-11T15:24:16.282Z,14.73
2022-10-11T15:26:43.910Z,14.66
2022-10-11T15:29:11.204Z,14.61
2022-10-11T15:31:38.181Z,14.53
2022-10-11T15:34:04.806Z,14.47
2022-10-11T15:36:31.393Z,14.42
2022-10-11T15:38:57.884Z,14.42
2022-10-11T15:41:24.254Z,14.41
2022-10-11T15:43:50.760Z,14.38
2022-10-11T15:46:22.449Z,14.36
2022-10-11T15:48:50.398Z,14.33
2022-10-11T15:51:17.324Z,14.32
2022-10-11T15:53:43.997Z,14.28
2022-10-11T15:56:16.172Z,14.25
2022-10-11T15:58:43.720Z,14.23
2022-10-11T16:01:19.083Z,14.17
2022-10-11T16:03:48.639Z,14.14
2022-10-11T16:06:16.204Z,14.07
2022-10-11T16:08:42.613Z,13.98
2022-10-11T16:11:09.939Z,13.86
2022-10-11T16:13:36.788Z,13.81
2022-10-11T16:16:06.123Z,13.72
2022-10-11T16:18:35.545Z,13.59
2022-10-11T16:21:06.874Z,13.50
2022-10-11T16:23:33.690Z,13.41
2022-10-11T16:26:04.278Z,13.31
2022-10-11T16:28:31.224Z,13.21
2022-10-11T16:30:58.183Z,13.12
2022-10-11T16:33:24.900Z,13.03
2022-10-11T16:35:52.172Z,12.93
2022-10-11T16:38:18.906Z,12.85
2022-10-11T16:40:45.368Z,12.74
2022-10-11T16:43:11.835Z,12.64
2022-10-11T16:45:38.291Z,12.56
2022-10-11T16:48:05.222Z,12.48
2022-10-11T16:50:34.475Z,12.40
2022-10-11T16:53:04.899Z,12.31
2022-10-11T16:55:31.438Z,12.21
2022-10-11T16:57:57.876Z,12.14
2022-10-11T17:00:24.375Z,12.09
2022-10-11T17:02:50.869Z,12.03
2022-10-11T17:05:17.428Z,11.99
2022-10-11T17:07:43.919Z,11.92
2022-10-11T17:10:10.376Z,11.88
2022-10-11T17:12:38.552Z,11.84
2022-10-11T17:15:05.857Z,11.77
2022-10-11T17:17:32.496Z,11.72
2022-10-11T17:19:59.116Z,11.70
2022-10-11T17:22:25.919Z,11.68
2022-10-11T17:24:52.464Z,11.64
2022-10-11T17:27:18.926Z,11.60
2022-10-11T17:29:45.360Z,11.57
2022-10-11T17:32:12.383Z,11.54
2022-10-11T17:34:38.772Z,11.52
2022-10-11T17:37:06.068Z,11.49
2022-10-11T17:39:32.487Z,11.46
2022-10-11T17:42:03.308Z,11.41
2022-10-11T17:44:29.760Z,11.36
2022-10-11T17:46:56.195Z,11.28
2022-10-11T17:49:22.618Z,11.17
2022-10-11T17:51:49.054Z,11.07
2022-10-11T17:54:16.283Z,10.98
2022-10-11T17:56:42.834Z,10.95
2022-10-11T17:59:15.762Z,10.96
2022-10-11T18:01:42.278Z,10.99
2022-10-11T18:04:16.213Z,11.00
2022-10-11T18:06:46.229Z,11.01
2022-10-11T18:09:14.564Z,11.01
2022-10-11T18:11:41.127Z,11.01
2022-10-11T18:14:08.054Z,10.99
2022-10-11T18:16:36.375Z,10.91
2022-10-11T18:19:05.710Z,10.82
2022-10-11T18:21:34.607Z,10.71
2022-10-11T18:24:03.581Z,10.68
2022-10-11T18:26:30.966Z,10.64
2022-10-11T18:28:58.638Z,10.64
2022-10-11T18:31:28.101Z,10.67
2022-10-11T18:33:55.221Z,10.64
2022-10-11T18:36:25.553Z,10.62
2022-10-11T18:38:54.957Z,10.59
2022-10-11T18:41:23.293Z,10.53
2022-10-11T18:43:50.620Z,10.47
2022-10-11T18:46:17.946Z,10.43
2022-10-11T18:48:46.237Z,10.35
2022-10-11T18:51:15.495Z,10.28
2022-10-11T18:53:42.078Z,10.25
2022-10-11T18:56:11.348Z,10.19
2022-10-11T18:58:39.076Z,10.15
2022-10-11T19:01:12.424Z,10.11
2022-10-11T19:03:39.304Z,10.08
2022-10-11T19:06:12.696Z,10.04
2022-10-11T19:08:39.169Z,10.00
2022-10-11T19:11:12.726Z,9.96
2022-10-11T19:13:39.843Z,9.88
2022-10-11T19:16:11.633Z,9.78
2022-10-11T19:18:41.831Z,9.71
2022-10-11T19:21:12.853Z,9.68
2022-10-11T19:23:44.536Z,9.69
2022-10-11T19:26:18.656Z,9.63
2022-10-11T19:28:45.852Z,9.56
2022-10-11T19:31:16.751Z,9.50
2022-10-11T19:33:45.212Z,9.47
2022-10-11T19:36:16.208Z,9.44
2022-10-11T19:38:48.378Z,9.43
2022-10-11T19:41:20.446Z,9.38
2022-10-11T19:43:48.153Z,9.37
2022-10-11T19:46:37.846Z,9.34
2022-10-11T19:49:09.370Z,9.28
2022-10-11T19:51:37.494Z,9.23
2022-10-11T19:54:06.697Z,9.18
2022-10-11T19:56:34.517Z,9.12
2022-10-11T19:59:01.845Z,9.11
2022-10-11T20:01:30.693Z,9.07
2022-10-11T20:04:03.521Z,9.03
2022-10-11T20:06:37.223Z,8.97
2022-10-11T20:09:27.908Z,8.90
2022-10-11T20:11:51.412Z,8.87
2022-10-11T20:14:17.974Z,8.89
2022-10-11T20:16:44.363Z,8.86
2022-10-11T20:19:10.815Z,8.78
2022-10-11T20:21:37.224Z,8.73
2022-10-11T20:24:04.149Z,8.68
2022-10-11T20:26:31.488Z,8.61
2022-10-11T20:29:00.954Z,8.55
2022-10-11T20:31:36.357Z,8.53
2022-10-11T20:34:04.805Z,8.48
2022-10-11T20:36:35.758Z,8.41
2022-10-11T20:39:02.286Z,8.37
2022-10-11T20:41:34.358Z,8.32
2022-10-11T20:44:02.022Z,8.27
2022-10-11T20:46:31.525Z,8.25
2022-10-11T20:49:01.965Z,8.24
2022-10-11T20:51:33.935Z,8.20
2022-10-11T20:54:02.054Z,8.14
2022-10-11T20:56:29.650Z,8.12
2022-10-11T20:58:57.580Z,8.12
2022-10-11T21:01:29.757Z,8.09
2022-10-11T21:04:01.225Z,8.04
2022-10-11T21:06:29.440Z,8.04
2022-10-11T21:08:57.148Z,8.04
2022-10-11T21:11:28.500Z,7.98
2022-10-11T21:13:57.257Z,7.96
2022-10-11T21:16:24.020Z,7.95
2022-10-11T21:18:52.325Z,7.96
2022-10-11T21:21:19.086Z,7.96
2022-10-11T21:23:45.519Z,7.94
2022-10-11T21:26:13.678Z,7.90
2022-10-11T21:28:41.032Z,7.87
2022-10-11T21:31:11.107Z,7.84
2022-10-11T21:33:38.444Z,7.84
2022-10-11T21:36:07.443Z,7.80
2022-10-11T21:38:34.334Z,7.73
2022-10-11T21:41:08.239Z,7.68
2022-10-11T21:43:36.040Z,7.62
2022-10-11T21:46:10.805Z,7.59
2022-10-11T21:48:37.479Z,7.60
2022-10-11T21:51:04.210Z,7.63
2022-10-11T21:53:30.825Z,7.68
2022-10-11T21:56:00.965Z,7.70
2022-10-11T21:58:28.170Z,7.74
2022-10-11T22:00:54.826Z,7.77
2022-10-11T22:03:21.399Z,7.80
2022-10-11T22:05:48.774Z,7.79
2022-10-11T22:08:15.195Z,7.78
2022-10-11T22:10:51.907Z,7.83
2022-10-11T22:13:18.427Z,7.83
2022-10-11T22:15:44.807Z,7.84
2022-10-11T22:18:11.516Z,7.89
2022-10-11T22:20:37.962Z,7.90
2022-10-11T22:23:04.548Z,7.85
2022-10-11T22:25:30.955Z,7.77
2022-10-11T22:27:57.362Z,7.72
2022-10-11T22:30:23.714Z,7.75
2022-10-11T22:32:51.720Z,7.75
2022-10-11T22:35:18.824Z,7.69
2022-10-11T22:37:45.576Z,7.71
2022-10-11T22:40:12.376Z,7.71
2022-10-11T22:42:38.935Z,7.71
2022-10-11T22:45:05.761Z,7.69
2022-10-11T22:47:32.217Z,7.66
2022-10-11T22:49:58.745Z,7.63
2022-10-11T22:52:25.294Z,7.65
2022-10-11T22:54:51.794Z,7.62
2022-10-11T22:57:18.292Z,7.57
2022-10-11T22:59:44.936Z,7.62
2022-10-11T23:02:11.311Z,7.61
2022-10-11T23:04:37.757Z,7.61
2022-10-11T23:07:05.216Z,7.63
2022-10-11T23:09:31.880Z,7.60
2022-10-11T23:11:59.197Z,7.59
2022-10-11T23:14:25.695Z,7.60
2022-10-11T23:16:52.264Z,7.59
2022-10-11T23:19:18.904Z,7.55
2022-10-11T23:21:45.653Z,7.47
2022-10-11T23:24:12.265Z,7.45
2022-10-11T23:26:38.651Z,7.45
2022-10-11T23:29:05.561Z,7.42
2022-10-11T23:31:31.999Z,7.35
2022-10-11T23:33:58.439Z,7.32
2022-10-11T23:36:26.093Z,7.32
2022-10-11T23:38:54.815Z,7.29
2022-10-11T23:41:26.776Z,7.29
2022-10-11T23:43:53.528Z,7.29
2022-10-11T23:46:20.182Z,7.29
2022-10-11T23:48:46.907Z,7.27
2022-10-11T23:51:13.875Z,7.25
2022-10-11T23:53:41.293Z,7.25
2022-10-11T23:56:11.431Z,7.23
2022-10-11T23:58:37.968Z,7.20
